sensor_id;sensor_type;location;lat;lon;timestamp;P1;durP1;ratioP1;P2;durP2;ratioP2
26034;SDS011;13809;48.632;11.576;2023-11-22T00:01:20;1.87;;;1.77;;
26034;SDS011;13809;48.632;11.576;2023-11-22T00:06:23;1.70;;;1.60;;
26034;SDS011;13809;48.632;11.576;2023-11-22T00:11:27;1.70;;;1.60;;
26034;SDS011;13809;48.632;11.576;2023-11-22T00:16:32;1.87;;;1.70;;
26034;SDS011;13809;48.632;11.576;2023-11-22T00:21:38;2.33;;;2.17;;
26034;SDS011;13809;48.632;11.576;2023-11-22T00:26:41;1.93;;;1.80;;
26034;SDS011;13809;48.632;11.576;2023-11-22T00:31:46;2.30;;;2.13;;
26034;SDS011;13809;48.632;11.576;2023-11-22T00:36:49;3.67;;;2.17;;
26034;SDS011;13809;48.632;11.576;2023-11-22T00:41:53;3.70;;;2.13;;
26034;SDS011;13809;48.632;11.576;2023-11-22T00:46:58;2.20;;;2.10;;
26034;SDS011;13809;48.632;11.576;2023-11-22T00:52:01;2.27;;;2.13;;
26034;SDS011;13809;48.632;11.576;2023-11-22T00:57:05;2.40;;;2.30;;
26034;SDS011;13809;48.632;11.576;2023-11-22T01:02:10;2.70;;;2.50;;
26034;SDS011;13809;48.632;11.576;2023-11-22T01:07:14;2.83;;;2.63;;
26034;SDS011;13809;48.632;11.576;2023-11-22T01:12:17;3.17;;;2.97;;
26034;SDS011;13809;48.632;11.576;2023-11-22T01:17:22;3.40;;;3.10;;
26034;SDS011;13809;48.632;11.576;2023-11-22T01:22:26;3.60;;;3.30;;
26034;SDS011;13809;48.632;11.576;2023-11-22T01:27:29;3.27;;;3.07;;
26034;SDS011;13809;48.632;11.576;2023-11-22T01:32:34;3.43;;;3.23;;
26034;SDS011;13809;48.632;11.576;2023-11-22T01:37:37;5.17;;;3.80;;
26034;SDS011;13809;48.632;11.576;2023-11-22T01:42:41;4.53;;;4.13;;
26034;SDS011;13809;48.632;11.576;2023-11-22T01:47:45;4.17;;;3.87;;
26034;SDS011;13809;48.632;11.576;2023-11-22T01:52:49;4.10;;;3.80;;
26034;SDS011;13809;48.632;11.576;2023-11-22T01:57:52;4.33;;;3.93;;
26034;SDS011;13809;48.632;11.576;2023-11-22T02:02:57;4.40;;;4.10;;
26034;SDS011;13809;48.632;11.576;2023-11-22T02:08:01;2.60;;;2.40;;
26034;SDS011;13809;48.632;11.576;2023-11-22T02:13:05;2.30;;;2.20;;
26034;SDS011;13809;48.632;11.576;2023-11-22T02:18:10;2.50;;;2.30;;
26034;SDS011;13809;48.632;11.576;2023-11-22T02:23:15;2.30;;;2.10;;
26034;SDS011;13809;48.632;11.576;2023-11-22T02:28:19;2.13;;;2.03;;
26034;SDS011;13809;48.632;11.576;2023-11-22T02:33:24;2.20;;;2.10;;
26034;SDS011;13809;48.632;11.576;2023-11-22T02:38:28;2.37;;;2.27;;
26034;SDS011;13809;48.632;11.576;2023-11-22T02:43:32;2.33;;;2.23;;
26034;SDS011;13809;48.632;11.576;2023-11-22T02:48:35;2.97;;;2.40;;
26034;SDS011;13809;48.632;11.576;2023-11-22T02:53:40;3.00;;;2.47;;
26034;SDS011;13809;48.632;11.576;2023-11-22T02:58:45;2.93;;;2.73;;
26034;SDS011;13809;48.632;11.576;2023-11-22T03:03:48;3.10;;;2.90;;
26034;SDS011;13809;48.632;11.576;2023-11-22T03:08:53;2.90;;;2.70;;
26034;SDS011;13809;48.632;11.576;2023-11-22T03:13:56;3.20;;;3.00;;
26034;SDS011;13809;48.632;11.576;2023-11-22T03:19:00;3.40;;;3.10;;
26034;SDS011;13809;48.632;11.576;2023-11-22T03:24:05;3.60;;;2.90;;
26034;SDS011;13809;48.632;11.576;2023-11-22T03:29:09;3.07;;;2.80;;
26034;SDS011;13809;48.632;11.576;2023-11-22T03:34:13;3.30;;;2.47;;
26034;SDS011;13809;48.632;11.576;2023-11-22T03:39:18;3.10;;;2.50;;
26034;SDS011;13809;48.632;11.576;2023-11-22T03:44:21;2.10;;;2.00;;
26034;SDS011;13809;48.632;11.576;2023-11-22T03:49:24;2.27;;;2.10;;
26034;SDS011;13809;48.632;11.576;2023-11-22T03:54:29;2.60;;;2.40;;
26034;SDS011;13809;48.632;11.576;2023-11-22T03:59:34;2.27;;;2.17;;
26034;SDS011;13809;48.632;11.576;2023-11-22T04:04:37;2.23;;;2.13;;
26034;SDS011;13809;48.632;11.576;2023-11-22T04:09:43;2.20;;;2.10;;
26034;SDS011;13809;48.632;11.576;2023-11-22T04:14:47;2.33;;;2.20;;
26034;SDS011;13809;48.632;11.576;2023-11-22T04:19:50;2.40;;;2.20;;
26034;SDS011;13809;48.632;11.576;2023-11-22T04:24:55;2.00;;;1.90;;
26034;SDS011;13809;48.632;11.576;2023-11-22T04:29:59;2.00;;;1.90;;
26034;SDS011;13809;48.632;11.576;2023-11-22T04:35:02;2.10;;;2.00;;
26034;SDS011;13809;48.632;11.576;2023-11-22T04:40:08;2.20;;;1.93;;
26034;SDS011;13809;48.632;11.576;2023-11-22T04:45:12;2.00;;;1.90;;
26034;SDS011;13809;48.632;11.576;2023-11-22T04:50:16;1.90;;;1.80;;
26034;SDS011;13809;48.632;11.576;2023-11-22T04:55:21;2.50;;;2.40;;
26034;SDS011;13809;48.632;11.576;2023-11-22T05:00:25;4.27;;;3.50;;
26034;SDS011;13809;48.632;11.576;2023-11-22T05:05:28;2.30;;;2.20;;
26034;SDS011;13809;48.632;11.576;2023-11-22T05:10:33;2.60;;;2.40;;
26034;SDS011;13809;48.632;11.576;2023-11-22T05:15:36;2.60;;;2.40;;
26034;SDS011;13809;48.632;11.576;2023-11-22T05:20:39;2.57;;;2.37;;
26034;SDS011;13809;48.632;11.576;2023-11-22T05:25:44;2.40;;;2.27;;
26034;SDS011;13809;48.632;11.576;2023-11-22T05:30:47;2.90;;;2.70;;
26034;SDS011;13809;48.632;11.576;2023-11-22T05:35:50;2.87;;;2.67;;
26034;SDS011;13809;48.632;11.576;2023-11-22T05:40:55;3.20;;;3.00;;
26034;SDS011;13809;48.632;11.576;2023-11-22T05:45:58;3.30;;;3.00;;
26034;SDS011;13809;48.632;11.576;2023-11-22T05:51:02;3.30;;;3.03;;
26034;SDS011;13809;48.632;11.576;2023-11-22T05:56:07;3.40;;;3.10;;
26034;SDS011;13809;48.632;11.576;2023-11-22T06:01:11;2.80;;;2.60;;
26034;SDS011;13809;48.632;11.576;2023-11-22T06:06:14;2.93;;;2.73;;
26034;SDS011;13809;48.632;11.576;2023-11-22T06:11:20;3.07;;;2.47;;
26034;SDS011;13809;48.632;11.576;2023-11-22T06:16:23;2.60;;;2.40;;
26034;SDS011;13809;48.632;11.576;2023-11-22T06:21:26;2.50;;;2.30;;
26034;SDS011;13809;48.632;11.576;2023-11-22T06:26:31;2.60;;;2.40;;
26034;SDS011;13809;48.632;11.576;2023-11-22T06:31:34;2.87;;;2.67;;
26034;SDS011;13809;48.632;11.576;2023-11-22T06:36:37;2.10;;;2.00;;
26034;SDS011;13809;48.632;11.576;2023-11-22T06:41:42;2.70;;;2.50;;
26034;SDS011;13809;48.632;11.576;2023-11-22T06:46:45;2.50;;;2.40;;
26034;SDS011;13809;48.632;11.576;2023-11-22T06:51:49;2.40;;;2.20;;
26034;SDS011;13809;48.632;11.576;2023-11-22T06:56:54;2.20;;;2.10;;
26034;SDS011;13809;48.632;11.576;2023-11-22T07:01:57;2.07;;;1.97;;
26034;SDS011;13809;48.632;11.576;2023-11-22T07:07:01;2.40;;;2.20;;
26034;SDS011;13809;48.632;11.576;2023-11-22T07:12:07;2.20;;;2.10;;
26034;SDS011;13809;48.632;11.576;2023-11-22T07:17:10;2.20;;;2.10;;
26034;SDS011;13809;48.632;11.576;2023-11-22T07:22:14;3.20;;;2.30;;
26034;SDS011;13809;48.632;11.576;2023-11-22T07:27:22;2.13;;;2.03;;
26034;SDS011;13809;48.632;11.576;2023-11-22T07:32:27;2.20;;;2.10;;
26034;SDS011;13809;48.632;11.576;2023-11-22T07:37:31;2.50;;;2.30;;
26034;SDS011;13809;48.632;11.576;2023-11-22T07:42:36;2.07;;;1.97;;
26034;SDS011;13809;48.632;11.576;2023-11-22T07:47:39;2.30;;;2.20;;
26034;SDS011;13809;48.632;11.576;2023-11-22T07:52:43;2.47;;;2.27;;
26034;SDS011;13809;48.632;11.576;2023-11-22T07:57:48;2.80;;;2.60;;
26034;SDS011;13809;48.632;11.576;2023-11-22T08:02:52;3.40;;;3.10;;
26034;SDS011;13809;48.632;11.576;2023-11-22T08:07:56;3.00;;;2.80;;
26034;SDS011;13809;48.632;11.576;2023-11-22T08:13:00;2.97;;;2.77;;
26034;SDS011;13809;48.632;11.576;2023-11-22T08:18:04;3.10;;;2.90;;
26034;SDS011;13809;48.632;11.576;2023-11-22T08:23:08;3.40;;;3.10;;
26034;SDS011;13809;48.632;11.576;2023-11-22T08:28:15;3.13;;;2.83;;
26034;SDS011;13809;48.632;11.576;2023-11-22T08:33:19;3.13;;;2.93;;
26034;SDS011;13809;48.632;11.576;2023-11-22T08:38:23;3.50;;;3.17;;
26034;SDS011;13809;48.632;11.576;2023-11-22T08:43:29;3.50;;;3.20;;
26034;SDS011;13809;48.632;11.576;2023-11-22T08:48:33;3.87;;;3.57;;
26034;SDS011;13809;48.632;11.576;2023-11-22T08:53:40;3.20;;;3.00;;
26034;SDS011;13809;48.632;11.576;2023-11-22T08:58:47;3.60;;;3.30;;
26034;SDS011;13809;48.632;11.576;2023-11-22T09:03:51;3.80;;;3.50;;
26034;SDS011;13809;48.632;11.576;2023-11-22T09:08:54;3.50;;;3.20;;
26034;SDS011;13809;48.632;11.576;2023-11-22T09:13:59;3.57;;;3.27;;
26034;SDS011;13809;48.632;11.576;2023-11-22T09:19:06;3.90;;;3.60;;
26034;SDS011;13809;48.632;11.576;2023-11-22T09:24:09;3.27;;;3.07;;
26034;SDS011;13809;48.632;11.576;2023-11-22T09:29:13;4.00;;;3.50;;
26034;SDS011;13809;48.632;11.576;2023-11-22T09:34:17;3.80;;;3.50;;
26034;SDS011;13809;48.632;11.576;2023-11-22T09:39:21;3.73;;;3.43;;
26034;SDS011;13809;48.632;11.576;2023-11-22T09:44:27;3.27;;;3.03;;
26034;SDS011;13809;48.632;11.576;2023-11-22T09:49:30;3.90;;;3.60;;
26034;SDS011;13809;48.632;11.576;2023-11-22T09:54:36;3.80;;;3.50;;
26034;SDS011;13809;48.632;11.576;2023-11-22T09:59:43;3.90;;;3.60;;
26034;SDS011;13809;48.632;11.576;2023-11-22T10:04:46;3.63;;;3.33;;
26034;SDS011;13809;48.632;11.576;2023-11-22T10:09:49;3.70;;;3.40;;
26034;SDS011;13809;48.632;11.576;2023-11-22T10:14:55;3.90;;;3.60;;
26034;SDS011;13809;48.632;11.576;2023-11-22T10:20:14;3.87;;;3.57;;
26034;SDS011;13809;48.632;11.576;2023-11-22T10:25:17;4.20;;;3.80;;
26034;SDS011;13809;48.632;11.576;2023-11-22T10:30:22;3.53;;;3.30;;
26034;SDS011;13809;48.632;11.576;2023-11-22T10:35:26;5.27;;;4.87;;
26034;SDS011;13809;48.632;11.576;2023-11-22T10:40:29;4.30;;;4.00;;
26034;SDS011;13809;48.632;11.576;2023-11-22T10:45:33;3.80;;;3.50;;
26034;SDS011;13809;48.632;11.576;2023-11-22T10:50:38;4.20;;;3.90;;
26034;SDS011;13809;48.632;11.576;2023-11-22T10:55:42;4.00;;;3.70;;
26034;SDS011;13809;48.632;11.576;2023-11-22T11:00:50;4.00;;;3.70;;
26034;SDS011;13809;48.632;11.576;2023-11-22T11:05:54;4.00;;;3.70;;
26034;SDS011;13809;48.632;11.576;2023-11-22T11:11:00;4.10;;;3.80;;
26034;SDS011;13809;48.632;11.576;2023-11-22T11:16:06;4.60;;;3.97;;
26034;SDS011;13809;48.632;11.576;2023-11-22T11:21:10;3.90;;;3.60;;
26034;SDS011;13809;48.632;11.576;2023-11-22T11:26:15;4.10;;;3.80;;
26034;SDS011;13809;48.632;11.576;2023-11-22T11:31:21;4.17;;;3.87;;
26034;SDS011;13809;48.632;11.576;2023-11-22T11:36:26;4.30;;;3.90;;
26034;SDS011;13809;48.632;11.576;2023-11-22T11:41:31;3.97;;;3.67;;
26034;SDS011;13809;48.632;11.576;2023-11-22T11:46:36;4.20;;;3.90;;
26034;SDS011;13809;48.632;11.576;2023-11-22T11:51:41;3.87;;;3.57;;
26034;SDS011;13809;48.632;11.576;2023-11-22T11:56:44;4.20;;;3.90;;
26034;SDS011;13809;48.632;11.576;2023-11-22T12:01:53;4.40;;;4.00;;
26034;SDS011;13809;48.632;11.576;2023-11-22T12:06:59;4.67;;;4.27;;
26034;SDS011;13809;48.632;11.576;2023-11-22T12:12:02;4.63;;;4.23;;
26034;SDS011;13809;48.632;11.576;2023-11-22T12:17:08;4.40;;;4.00;;
26034;SDS011;13809;48.632;11.576;2023-11-22T12:22:12;4.53;;;4.13;;
26034;SDS011;13809;48.632;11.576;2023-11-22T12:27:17;4.60;;;4.20;;
26034;SDS011;13809;48.632;11.576;2023-11-22T12:32:24;3.90;;;3.60;;
26034;SDS011;13809;48.632;11.576;2023-11-22T12:37:28;4.53;;;4.13;;
26034;SDS011;13809;48.632;11.576;2023-11-22T12:42:31;4.73;;;4.33;;
26034;SDS011;13809;48.632;11.576;2023-11-22T12:47:37;4.90;;;4.50;;
26034;SDS011;13809;48.632;11.576;2023-11-22T12:52:41;4.70;;;4.30;;
26034;SDS011;13809;48.632;11.576;2023-11-22T12:57:51;4.20;;;3.90;;
26034;SDS011;13809;48.632;11.576;2023-11-22T13:03:01;4.63;;;4.23;;
26034;SDS011;13809;48.632;11.576;2023-11-22T13:08:06;4.20;;;3.90;;
26034;SDS011;13809;48.632;11.576;2023-11-22T13:13:09;5.37;;;4.93;;
26034;SDS011;13809;48.632;11.576;2023-11-22T13:18:15;4.87;;;4.47;;
26034;SDS011;13809;48.632;11.576;2023-11-22T13:23:18;4.77;;;4.37;;
26034;SDS011;13809;48.632;11.576;2023-11-22T13:28:22;5.27;;;4.77;;
26034;SDS011;13809;48.632;11.576;2023-11-22T13:33:28;5.00;;;4.60;;
26034;SDS011;13809;48.632;11.576;2023-11-22T13:38:31;4.80;;;4.40;;
26034;SDS011;13809;48.632;11.576;2023-11-22T13:43:34;5.30;;;4.80;;
26034;SDS011;13809;48.632;11.576;2023-11-22T13:48:39;4.43;;;4.13;;
26034;SDS011;13809;48.632;11.576;2023-11-22T13:53:43;5.17;;;4.67;;
26034;SDS011;13809;48.632;11.576;2023-11-22T13:58:51;5.33;;;4.83;;
26034;SDS011;13809;48.632;11.576;2023-11-22T14:03:55;4.47;;;4.13;;
26034;SDS011;13809;48.632;11.576;2023-11-22T14:08:59;5.97;;;5.47;;
26034;SDS011;13809;48.632;11.576;2023-11-22T14:14:02;5.07;;;4.67;;
26034;SDS011;13809;48.632;11.576;2023-11-22T14:19:07;4.63;;;4.23;;
26034;SDS011;13809;48.632;11.576;2023-11-22T14:24:10;5.17;;;4.70;;
26034;SDS011;13809;48.632;11.576;2023-11-22T14:29:14;5.53;;;5.03;;
26034;SDS011;13809;48.632;11.576;2023-11-22T14:34:18;5.90;;;5.40;;
26034;SDS011;13809;48.632;11.576;2023-11-22T14:39:22;5.17;;;4.27;;
26034;SDS011;13809;48.632;11.576;2023-11-22T14:44:25;5.07;;;4.57;;
26034;SDS011;13809;48.632;11.576;2023-11-22T14:49:29;5.27;;;4.77;;
26034;SDS011;13809;48.632;11.576;2023-11-22T14:54:46;4.67;;;4.27;;
26034;SDS011;13809;48.632;11.576;2023-11-22T14:59:49;4.80;;;4.30;;
26034;SDS011;13809;48.632;11.576;2023-11-22T15:04:54;4.47;;;4.13;;
26034;SDS011;13809;48.632;11.576;2023-11-22T15:09:57;4.73;;;4.33;;
26034;SDS011;13809;48.632;11.576;2023-11-22T15:15:01;4.73;;;4.33;;
26034;SDS011;13809;48.632;11.576;2023-11-22T15:20:06;4.73;;;4.30;;
26034;SDS011;13809;48.632;11.576;2023-11-22T15:25:11;4.70;;;4.30;;
26034;SDS011;13809;48.632;11.576;2023-11-22T15:30:17;4.87;;;4.47;;
26034;SDS011;13809;48.632;11.576;2023-11-22T15:35:22;4.67;;;4.27;;
26034;SDS011;13809;48.632;11.576;2023-11-22T15:40:26;4.80;;;4.40;;
26034;SDS011;13809;48.632;11.576;2023-11-22T15:45:29;5.57;;;5.07;;
26034;SDS011;13809;48.632;11.576;2023-11-22T15:50:34;4.70;;;4.30;;
26034;SDS011;13809;48.632;11.576;2023-11-22T15:55:37;4.77;;;4.37;;
26034;SDS011;13809;48.632;11.576;2023-11-22T16:00:40;4.80;;;4.40;;
26034;SDS011;13809;48.632;11.576;2023-11-22T16:05:46;5.17;;;4.77;;
26034;SDS011;13809;48.632;11.576;2023-11-22T16:10:50;5.07;;;4.57;;
26034;SDS011;13809;48.632;11.576;2023-11-22T16:15:53;5.53;;;5.03;;
26034;SDS011;13809;48.632;11.576;2023-11-22T16:21:02;6.87;;;6.17;;
26034;SDS011;13809;48.632;11.576;2023-11-22T16:26:06;5.70;;;5.10;;
26034;SDS011;13809;48.632;11.576;2023-11-22T16:31:09;5.67;;;5.10;;
26034;SDS011;13809;48.632;11.576;2023-11-22T16:36:16;5.57;;;5.13;;
26034;SDS011;13809;48.632;11.576;2023-11-22T16:41:22;6.23;;;5.73;;
26034;SDS011;13809;48.632;11.576;2023-11-22T16:46:27;5.70;;;5.23;;
26034;SDS011;13809;48.632;11.576;2023-11-22T16:51:32;5.27;;;4.83;;
26034;SDS011;13809;48.632;11.576;2023-11-22T16:56:35;5.37;;;4.97;;
26034;SDS011;13809;48.632;11.576;2023-11-22T17:01:38;5.37;;;4.87;;
26034;SDS011;13809;48.632;11.576;2023-11-22T17:06:43;5.70;;;5.30;;
26034;SDS011;13809;48.632;11.576;2023-11-22T17:11:46;5.40;;;5.00;;
26034;SDS011;13809;48.632;11.576;2023-11-22T17:16:50;6.27;;;5.67;;
26034;SDS011;13809;48.632;11.576;2023-11-22T17:21:54;8.83;;;8.03;;
26034;SDS011;13809;48.632;11.576;2023-11-22T17:26:58;8.90;;;8.10;;
26034;SDS011;13809;48.632;11.576;2023-11-22T17:32:01;7.90;;;7.10;;
26034;SDS011;13809;48.632;11.576;2023-11-22T17:37:05;6.23;;;5.73;;
26034;SDS011;13809;48.632;11.576;2023-11-22T17:42:09;6.47;;;5.87;;
26034;SDS011;13809;48.632;11.576;2023-11-22T17:47:12;5.93;;;5.43;;
26034;SDS011;13809;48.632;11.576;2023-11-22T17:52:17;5.37;;;4.87;;
26034;SDS011;13809;48.632;11.576;2023-11-22T17:57:20;4.77;;;4.37;;
26034;SDS011;13809;48.632;11.576;2023-11-22T18:02:24;5.77;;;4.90;;
26034;SDS011;13809;48.632;11.576;2023-11-22T18:07:28;5.60;;;5.10;;
26034;SDS011;13809;48.632;11.576;2023-11-22T18:12:32;7.00;;;6.40;;
26034;SDS011;13809;48.632;11.576;2023-11-22T18:17:35;9.20;;;7.90;;
26034;SDS011;13809;48.632;11.576;2023-11-22T18:22:40;6.83;;;6.13;;
26034;SDS011;13809;48.632;11.576;2023-11-22T18:27:43;7.00;;;6.40;;
26034;SDS011;13809;48.632;11.576;2023-11-22T18:32:46;6.43;;;5.83;;
26034;SDS011;13809;48.632;11.576;2023-11-22T18:37:51;6.60;;;6.03;;
26034;SDS011;13809;48.632;11.576;2023-11-22T18:42:54;6.43;;;5.83;;
26034;SDS011;13809;48.632;11.576;2023-11-22T18:47:57;6.50;;;6.00;;
26034;SDS011;13809;48.632;11.576;2023-11-22T18:53:02;6.10;;;5.60;;
26034;SDS011;13809;48.632;11.576;2023-11-22T18:58:05;6.13;;;5.60;;
26034;SDS011;13809;48.632;11.576;2023-11-22T19:03:09;7.10;;;6.50;;
26034;SDS011;13809;48.632;11.576;2023-11-22T19:08:14;9.03;;;8.13;;
26034;SDS011;13809;48.632;11.576;2023-11-22T19:13:17;7.17;;;6.47;;
26034;SDS011;13809;48.632;11.576;2023-11-22T19:18:22;10.07;;;9.07;;
26034;SDS011;13809;48.632;11.576;2023-11-22T19:23:26;24.97;;;18.37;;
26034;SDS011;13809;48.632;11.576;2023-11-22T19:28:30;31.30;;;21.73;;
26034;SDS011;13809;48.632;11.576;2023-11-22T19:33:34;11.97;;;10.50;;
26034;SDS011;13809;48.632;11.576;2023-11-22T19:38:40;11.03;;;9.93;;
26034;SDS011;13809;48.632;11.576;2023-11-22T19:43:43;10.70;;;9.63;;
26034;SDS011;13809;48.632;11.576;2023-11-22T19:48:47;8.73;;;7.93;;
26034;SDS011;13809;48.632;11.576;2023-11-22T19:53:51;8.17;;;7.37;;
26034;SDS011;13809;48.632;11.576;2023-11-22T19:58:56;7.20;;;6.53;;
26034;SDS011;13809;48.632;11.576;2023-11-22T20:04:00;7.80;;;7.03;;
26034;SDS011;13809;48.632;11.576;2023-11-22T20:09:05;8.00;;;7.27;;
26034;SDS011;13809;48.632;11.576;2023-11-22T20:14:08;7.43;;;6.73;;
26034;SDS011;13809;48.632;11.576;2023-11-22T20:19:11;6.30;;;5.77;;
26034;SDS011;13809;48.632;11.576;2023-11-22T20:24:16;8.37;;;7.63;;
26034;SDS011;13809;48.632;11.576;2023-11-22T20:29:19;6.50;;;5.90;;
26034;SDS011;13809;48.632;11.576;2023-11-22T20:34:22;7.50;;;6.80;;
26034;SDS011;13809;48.632;11.576;2023-11-22T20:39:28;7.63;;;6.93;;
26034;SDS011;13809;48.632;11.576;2023-11-22T20:44:31;9.47;;;7.90;;
26034;SDS011;13809;48.632;11.576;2023-11-22T20:49:34;9.40;;;8.50;;
26034;SDS011;13809;48.632;11.576;2023-11-22T20:54:40;10.13;;;8.60;;
26034;SDS011;13809;48.632;11.576;2023-11-22T20:59:43;11.17;;;8.67;;
26034;SDS011;13809;48.632;11.576;2023-11-22T21:04:46;9.37;;;8.47;;
26034;SDS011;13809;48.632;11.576;2023-11-22T21:09:51;9.70;;;8.80;;
26034;SDS011;13809;48.632;11.576;2023-11-22T21:14:54;8.70;;;7.90;;
26034;SDS011;13809;48.632;11.576;2023-11-22T21:19:59;9.47;;;8.57;;
26034;SDS011;13809;48.632;11.576;2023-11-22T21:25:10;9.17;;;8.23;;
26034;SDS011;13809;48.632;11.576;2023-11-22T21:30:13;8.83;;;8.03;;
26034;SDS011;13809;48.632;11.576;2023-11-22T21:35:16;9.70;;;8.80;;
26034;SDS011;13809;48.632;11.576;2023-11-22T21:40:21;9.70;;;8.83;;
26034;SDS011;13809;48.632;11.576;2023-11-22T21:45:24;9.63;;;8.73;;
26034;SDS011;13809;48.632;11.576;2023-11-22T21:50:28;10.10;;;9.10;;
26034;SDS011;13809;48.632;11.576;2023-11-22T21:55:32;10.13;;;9.20;;
26034;SDS011;13809;48.632;11.576;2023-11-22T22:00:35;9.63;;;8.70;;
26034;SDS011;13809;48.632;11.576;2023-11-22T22:05:39;8.63;;;7.83;;
26034;SDS011;13809;48.632;11.576;2023-11-22T22:10:47;13.03;;;11.47;;
26034;SDS011;13809;48.632;11.576;2023-11-22T22:15:51;11.00;;;9.90;;
26034;SDS011;13809;48.632;11.576;2023-11-22T22:20:57;9.83;;;8.93;;
26034;SDS011;13809;48.632;11.576;2023-11-22T22:26:03;10.80;;;9.70;;
26034;SDS011;13809;48.632;11.576;2023-11-22T22:31:07;10.80;;;9.80;;
26034;SDS011;13809;48.632;11.576;2023-11-22T22:36:14;10.27;;;9.30;;
26034;SDS011;13809;48.632;11.576;2023-11-22T22:41:20;9.93;;;8.90;;
26034;SDS011;13809;48.632;11.576;2023-11-22T22:46:25;10.30;;;9.40;;
26034;SDS011;13809;48.632;11.576;2023-11-22T22:51:28;9.90;;;9.00;;
26034;SDS011;13809;48.632;11.576;2023-11-22T22:56:34;10.43;;;9.30;;
26034;SDS011;13809;48.632;11.576;2023-11-22T23:01:37;10.00;;;9.03;;
26034;SDS011;13809;48.632;11.576;2023-11-22T23:06:41;10.33;;;9.33;;
26034;SDS011;13809;48.632;11.576;2023-11-22T23:11:45;9.53;;;8.63;;
26034;SDS011;13809;48.632;11.576;2023-11-22T23:16:49;10.53;;;9.63;;
26034;SDS011;13809;48.632;11.576;2023-11-22T23:21:53;10.10;;;9.17;;
26034;SDS011;13809;48.632;11.576;2023-11-22T23:26:57;9.80;;;8.97;;
26034;SDS011;13809;48.632;11.576;2023-11-22T23:32:01;10.80;;;9.70;;
26034;SDS011;13809;48.632;11.576;2023-11-22T23:37:06;10.33;;;9.33;;
26034;SDS011;13809;48.632;11.576;2023-11-22T23:42:11;9.93;;;9.03;;
26034;SDS011;13809;48.632;11.576;2023-11-22T23:47:15;10.20;;;9.23;;
26034;SDS011;13809;48.632;11.576;2023-11-22T23:52:19;10.50;;;9.50;;
26034;SDS011;13809;48.632;11.576;2023-11-22T23:57:24;10.40;;;9.40;;
